| time (UTC) | temp C | wind direction | speed KPH | gust KPH | rain 1hr cm | rain 24hr cm | rain mn cm | humidity % | barometer mb |
| 20260507160516 | 16 | 315 | 3.2 | 9.7 | 0.00 | 0.00 | 0.00 | 48 | 1011.2 |
| 20260507155516 | 16 | 45 | 4.8 | 8.0 | 0.00 | 0.00 | 0.00 | 41 | 1011.3 |
| 20260507154516 | 16 | 315 | 4.8 | 11.3 | 0.00 | 0.00 | 0.00 | 43 | 1011.3 |
| 20260507153516 | 16 | 315 | 4.8 | 14.5 | 0.00 | 0.00 | 0.00 | 44 | 1011.3 |
| 20260507152516 | 15 | 315 | 9.7 | 17.7 | 0.00 | 0.00 | 0.00 | 43 | 1011.4 |
| 20260507151517 | 15 | 315 | 3.2 | 4.8 | 0.00 | 0.00 | 0.00 | 46 | 1011.5 |
| 20260507150516 | 15 | 315 | 6.4 | 16.1 | 0.00 | 0.00 | 0.00 | 43 | 1011.7 |
| 20260507145536 | 15 | 293 | 4.8 | 12.9 | 0.00 | 0.00 | 0.00 | 47 | 1012.0 |
| 20260507144516 | 15 | 45 | 4.8 | 11.3 | 0.00 | 0.00 | 0.00 | 48 | 1012.3 |
| 20260507143516 | 15 | 293 | 8.0 | 17.7 | 0.00 | 0.00 | 0.00 | 45 | 1012.2 |
| 20260507142516 | 15 | 315 | 4.8 | 19.3 | 0.00 | 0.03 | 0.00 | 49 | 1012.4 |
| 20260507141516 | 13 | 315 | 3.2 | 12.9 | 0.00 | 0.03 | 0.00 | 51 | 1012.5 |
| 20260507140516 | 13 | 315 | 4.8 | 9.7 | 0.00 | 0.03 | 0.00 | 51 | 1012.5 |
| 20260507135537 | 13 | 315 | 4.8 | 12.9 | 0.00 | 0.05 | 0.00 | 52 | 1012.7 |
| 20260507134516 | 13 | 315 | 3.2 | 11.3 | 0.00 | 0.05 | 0.00 | 55 | 1012.9 |
| 20260507133517 | 13 | 315 | 4.8 | 12.9 | 0.00 | 0.08 | 0.00 | 54 | 1012.9 |
| 20260507132516 | 12 | 315 | 4.8 | 11.3 | 0.00 | 0.08 | 0.00 | 55 | 1013.0 |
| 20260507131516 | 12 | 315 | 3.2 | 8.0 | 0.00 | 0.10 | 0.00 | 58 | 1013.0 |
| 20260507130516 | 12 | 315 | 1.6 | 6.4 | 0.00 | 0.18 | 0.00 | 60 | 1013.1 |
| 20260507125516 | 12 | 315 | 1.6 | 4.8 | 0.00 | 0.20 | 0.00 | 59 | 1013.0 |
| 20260507124536 | 12 | 293 | 4.8 | 8.0 | 0.00 | 0.25 | 0.00 | 57 | 1013.1 |
| 20260507123517 | 12 | 315 | 4.8 | 9.7 | 0.00 | 0.28 | 0.00 | 57 | 1012.9 |
| 20260507122516 | 12 | 315 | 3.2 | 8.0 | 0.00 | 0.30 | 0.00 | 58 | 1012.8 |
| 20260507121516 | 12 | 0.0 | 3.2 | 0.00 | 0.30 | 0.00 | 60 | 1012.9 | |
| 20260507120516 | 12 | 293 | 1.6 | 6.4 | 0.00 | 0.33 | 0.00 | 58 | 1012.7 |
| 20260507115515 | 12 | 315 | 1.6 | 4.8 | 0.00 | 0.36 | 0.00 | 58 | 1012.7 |
| 20260507114536 | 11 | 0.0 | 4.8 | 0.00 | 0.38 | 0.00 | 58 | 1012.7 | |
| 20260507113516 | 11 | 0.0 | 3.2 | 0.00 | 0.41 | 0.00 | 58 | 1012.6 | |
| 20260507112516 | 11 | 315 | 3.2 | 11.3 | 0.00 | 0.43 | 0.00 | 56 | 1012.6 |
| 20260507111515 | 11 | 315 | 4.8 | 11.3 | 0.00 | 0.46 | 0.00 | 54 | 1012.7 |
| 20260507110516 | 11 | 315 | 3.2 | 6.4 | 0.00 | 0.46 | 0.00 | 56 | 1012.5 |
| 20260507105516 | 11 | 293 | 4.8 | 11.3 | 0.00 | 0.48 | 0.00 | 55 | 1012.5 |
| 20260507104517 | 12 | 315 | 3.2 | 8.0 | 0.00 | 0.48 | 0.00 | 56 | 1012.4 |
| 20260507103516 | 12 | 0.0 | 3.2 | 0.00 | 0.48 | 0.00 | 57 | 1012.0 | |
| 20260507102516 | 12 | 0 | 1.6 | 6.4 | 0.00 | 0.48 | 0.00 | 56 | 1012.0 |
| 20260507101516 | 12 | 293 | 1.6 | 6.4 | 0.00 | 0.48 | 0.00 | 56 | 1011.9 |
| 20260507100516 | 12 | 315 | 4.8 | 14.5 | 0.00 | 0.48 | 0.00 | 56 | 1011.9 |
| 20260507095516 | 12 | 315 | 6.4 | 17.7 | 0.00 | 0.48 | 0.00 | 55 | 1011.7 |
| 20260507094516 | 12 | 315 | 4.8 | 16.1 | 0.00 | 0.48 | 0.00 | 57 | 1011.4 |
| 20260507093536 | 12 | 315 | 4.8 | 8.0 | 0.00 | 0.48 | 0.00 | 58 | 1011.4 |
| 20260507092536 | 12 | 315 | 6.4 | 19.3 | 0.00 | 0.48 | 0.00 | 58 | 1011.3 |
| 20260507091536 | 12 | 315 | 8.0 | 22.5 | 0.00 | 0.48 | 0.00 | 61 | 1011.5 |
| 20260507090536 | 12 | 315 | 3.2 | 6.4 | 0.00 | 0.48 | 0.00 | 66 | 1011.6 |
| 20260507085516 | 12 | 315 | 3.2 | 11.3 | 0.00 | 0.48 | 0.00 | 67 | 1011.5 |
| 20260507084518 | 12 | 338 | 3.2 | 8.0 | 0.00 | 0.48 | 0.00 | 67 | 1011.5 |
| 20260507083517 | 12 | 315 | 4.8 | 11.3 | 0.00 | 0.48 | 0.00 | 69 | 1011.3 |
| 20260507082518 | 13 | 315 | 3.2 | 9.7 | 0.00 | 0.48 | 0.00 | 70 | 1011.5 |
| 20260507081517 | 13 | 315 | 3.2 | 14.5 | 0.00 | 0.48 | 0.00 | 71 | 1011.3 |
| 20260507080517 | 13 | 315 | 3.2 | 11.3 | 0.00 | 0.48 | 0.00 | 73 | 1011.1 |
| 20260507075538 | 13 | 293 | 4.8 | 8.0 | 0.00 | 0.48 | 0.00 | 73 | 1010.9 |
| 20260507074517 | 13 | 315 | 4.8 | 11.3 | 0.00 | 0.48 | 0.00 | 74 | 1010.9 |
| 20260507073538 | 13 | 315 | 3.2 | 11.3 | 0.00 | 0.48 | 0.00 | 74 | 1010.8 |
| 20260507072517 | 13 | 315 | 3.2 | 12.9 | 0.00 | 0.48 | 0.00 | 75 | 1010.9 |
| 20260507071517 | 13 | 338 | 3.2 | 9.7 | 0.00 | 0.48 | 0.00 | 75 | 1010.8 |
| 20260507070518 | 13 | 315 | 3.2 | 8.0 | 0.00 | 0.48 | 0.00 | 74 | 1010.8 |
| 20260507065517 | 13 | 315 | 4.8 | 9.7 | 0.00 | 0.48 | 0.00 | 73 | 1010.8 |
| 20260507064518 | 13 | 315 | 6.4 | 16.1 | 0.00 | 0.48 | 0.00 | 74 | 1011.0 |
| 20260507063518 | 13 | 315 | 4.8 | 9.7 | 0.00 | 0.48 | 0.00 | 74 | 1011.1 |
| 20260507062517 | 13 | 315 | 4.8 | 8.0 | 0.00 | 0.48 | 0.00 | 73 | 1011.1 |
| 20260507061520 | 13 | 315 | 4.8 | 11.3 | 0.00 | 0.48 | 0.00 | 73 | 1011.3 |
| 20260507060517 | 13 | 315 | 3.2 | 8.0 | 0.00 | 0.48 | 0.00 | 73 | 1011.3 |
| 20260507055537 | 13 | 315 | 4.8 | 16.1 | 0.00 | 0.48 | 0.00 | 72 | 1011.2 |
| 20260507054537 | 13 | 293 | 3.2 | 9.7 | 0.00 | 0.48 | 0.00 | 73 | 1011.1 |
| 20260507053518 | 13 | 315 | 4.8 | 8.0 | 0.00 | 0.48 | 0.00 | 73 | 1011.0 |
| 20260507052517 | 13 | 315 | 1.6 | 3.2 | 0.00 | 0.48 | 0.00 | 74 | 1011.0 |
| 20260507051518 | 13 | 315 | 4.8 | 9.7 | 0.00 | 0.48 | 0.00 | 74 | 1011.0 |
| 20260507050517 | 13 | 315 | 3.2 | 9.7 | 0.00 | 0.48 | 0.00 | 75 | 1011.0 |
| 20260507045520 | 13 | 0 | 4.8 | 12.9 | 0.00 | 0.48 | 0.00 | 76 | 1011.0 |
| 20260507044517 | 13 | 293 | 3.2 | 9.7 | 0.00 | 0.48 | 0.00 | 78 | 1011.0 |
| 20260507043518 | 14 | 23 | 3.2 | 6.4 | 0.00 | 0.48 | 0.00 | 78 | 1010.2 |
| 20260507042517 | 14 | 315 | 3.2 | 6.4 | 0.00 | 0.48 | 0.00 | 78 | 1011.0 |
| 20260507041521 | 14 | 315 | 6.4 | 14.5 | 0.00 | 0.48 | 0.00 | 78 | 1011.0 |
| 20260507040537 | 14 | 315 | 4.8 | 12.9 | 0.00 | 0.48 | 0.00 | 79 | 1010.9 |
| 20260507035517 | 15 | 293 | 3.2 | 12.9 | 0.00 | 0.48 | 0.00 | 79 | 1010.4 |
| 20260507034518 | 15 | 315 | 6.4 | 12.9 | 0.00 | 0.48 | 0.00 | 78 | 1010.6 |
| 20260507033517 | 15 | 315 | 8.0 | 17.7 | 0.00 | 0.48 | 0.00 | 78 | 1010.5 |
| 20260507032517 | 15 | 315 | 8.0 | 17.7 | 0.00 | 0.48 | 0.00 | 77 | 1010.6 |
| 20260507031517 | 15 | 315 | 4.8 | 12.9 | 0.00 | 0.48 | 0.00 | 77 | 1010.7 |
| 20260507030537 | 15 | 315 | 4.8 | 8.0 | 0.00 | 0.48 | 0.00 | 78 | 1010.5 |
| 20260507025517 | 15 | 315 | 6.4 | 17.7 | 0.00 | 0.48 | 0.00 | 77 | 1010.3 |
| 20260507024537 | 15 | 315 | 3.2 | 6.4 | 0.00 | 0.48 | 0.00 | 77 | 1010.2 |
| 20260507023537 | 15 | 315 | 3.2 | 8.0 | 0.00 | 0.48 | 0.00 | 77 | 1010.3 |
| 20260507022517 | 16 | 45 | 4.8 | 12.9 | 0.00 | 0.48 | 0.00 | 76 | 1010.2 |
| 20260507021517 | 16 | 293 | 3.2 | 12.9 | 0.00 | 0.48 | 0.00 | 77 | 1010.0 |
| 20260507020517 | 16 | 45 | 1.6 | 4.8 | 0.00 | 0.48 | 0.00 | 78 | 1010.0 |
| 20260507015517 | 16 | 338 | 3.2 | 9.7 | 0.00 | 0.48 | 0.00 | 77 | 1009.9 |
| 20260507014557 | 16 | 23 | 3.2 | 12.9 | 0.00 | 0.48 | 0.00 | 79 | 1010.0 |
| 20260507013517 | 16 | 293 | 4.8 | 11.3 | 0.00 | 0.48 | 0.00 | 80 | 1009.8 |
| 20260507012517 | 16 | 23 | 3.2 | 8.0 | 0.00 | 0.48 | 0.00 | 81 | 1009.6 |
| 20260507011517 | 16 | 338 | 3.2 | 6.4 | 0.00 | 0.48 | 0.00 | 80 | 1009.6 |
| 20260507010557 | 16 | 315 | 1.6 | 6.4 | 0.00 | 0.48 | 0.00 | 80 | 1009.7 |
| 20260507005518 | 17 | 293 | 3.2 | 8.0 | 0.00 | 0.48 | 0.00 | 81 | 1010.2 |
| 20260507004517 | 17 | 315 | 3.2 | 8.0 | 0.00 | 0.48 | 0.00 | 81 | 1009.8 |
| 20260507003517 | 17 | 315 | 4.8 | 9.7 | 0.00 | 0.48 | 0.00 | 80 | 1009.8 |
| 20260507002516 | 17 | 315 | 4.8 | 16.1 | 0.00 | 0.48 | 0.00 | 80 | 1009.7 |
| 20260507001517 | 18 | 315 | 8.0 | 19.3 | 0.00 | 0.48 | 0.00 | 81 | 1009.8 |
| 20260507000517 | 18 | 315 | 6.4 | 16.1 | 0.00 | 0.48 | 0.00 | 81 | 1009.2 |
| 20260506235517 | 18 | 315 | 8.0 | 19.3 | 0.00 | 0.48 | 0.00 | 81 | 1009.3 |
| 20260506234517 | 18 | 315 | 8.0 | 14.5 | 0.00 | 0.48 | 0.00 | 81 | 1008.8 |
| 20260506233517 | 19 | 315 | 8.0 | 19.3 | 0.00 | 0.48 | 0.00 | 81 | 1009.0 |
| 20260506232517 | 19 | 315 | 3.2 | 9.7 | 0.00 | 0.48 | 0.00 | 82 | 1008.2 |
| 20260506231517 | 19 | 315 | 4.8 | 8.0 | 0.00 | 0.48 | 0.00 | 81 | 1008.2 |
| 20260506230517 | 20 | 315 | 4.8 | 16.1 | 0.00 | 0.48 | 0.00 | 81 | 1008.3 |
| 20260506225537 | 20 | 315 | 4.8 | 12.9 | 0.00 | 0.48 | 0.48 | 82 | 1008.1 |
| 20260506224538 | 20 | 315 | 3.2 | 11.3 | 0.00 | 0.48 | 0.48 | 84 | 1008.2 |
| 20260506223518 | 20 | 0.0 | 3.2 | 0.00 | 0.48 | 0.48 | 84 | 1008.0 | |
| 20260506222518 | 20 | 0.0 | 3.2 | 0.00 | 0.48 | 0.48 | 84 | 1007.8 | |
| 20260506221538 | 20 | 225 | 1.6 | 4.8 | 0.00 | 0.48 | 0.48 | 86 | 1007.9 |
| 20260506220517 | 20 | 0.0 | 3.2 | 0.00 | 0.48 | 0.48 | 86 | 1007.7 | |
| 20260506215537 | 20 | 225 | 1.6 | 4.8 | 0.00 | 0.48 | 0.48 | 87 | 1007.6 |
| 20260506214517 | 20 | 0.0 | 1.6 | 0.00 | 0.48 | 0.48 | 87 | 1007.7 | |
| 20260506213517 | 20 | 0.0 | 0.0 | 0.00 | 0.48 | 0.48 | 87 | 1007.8 | |
| 20260506212518 | 20 | 0.0 | 1.6 | 0.00 | 0.48 | 0.48 | 87 | 1007.7 | |
| 20260506211517 | 20 | 0.0 | 1.6 | 0.00 | 0.48 | 0.48 | 87 | 1007.6 | |
| 20260506210518 | 20 | 0.0 | 1.6 | 0.00 | 0.48 | 0.48 | 87 | 1007.4 | |
| 20260506205517 | 20 | 0.0 | 1.6 | 0.00 | 0.48 | 0.48 | 86 | 1007.3 | |
| 20260506204517 | 20 | 0.0 | 0.0 | 0.00 | 0.48 | 0.48 | 85 | 1007.3 | |
| 20260506203517 | 20 | 0.0 | 0.0 | 0.00 | 0.48 | 0.48 | 85 | 1007.3 | |
| 20260506202517 | 20 | 0.0 | 3.2 | 0.00 | 0.48 | 0.48 | 84 | 1007.1 | |
| 20260506201517 | 20 | 0.0 | 1.6 | 0.00 | 0.48 | 0.48 | 84 | 1007.4 | |
| 20260506200517 | 20 | 0.0 | 3.2 | 0.00 | 0.48 | 0.48 | 82 | 1007.3 | |
| 20260506195517 | 20 | 203 | 1.6 | 3.2 | 0.00 | 0.48 | 0.48 | 81 | 1007.3 |
| 20260506194537 | 20 | 180 | 1.6 | 6.4 | 0.00 | 0.48 | 0.48 | 81 | 1007.2 |
| 20260506193517 | 20 | 180 | 1.6 | 4.8 | 0.00 | 0.48 | 0.48 | 80 | 1007.2 |
| 20260506192517 | 20 | 135 | 3.2 | 9.7 | 0.00 | 0.48 | 0.48 | 80 | 1007.4 |
| 20260506191517 | 21 | 180 | 4.8 | 16.1 | 0.00 | 0.48 | 0.48 | 79 | 1007.5 |
| 20260506190518 | 21 | 158 | 1.6 | 8.0 | 0.00 | 0.48 | 0.48 | 81 | 1007.4 |
| 20260506185517 | 20 | 180 | 3.2 | 8.0 | 0.00 | 0.48 | 0.48 | 81 | 1007.4 |
| 20260506184517 | 20 | 158 | 1.6 | 9.7 | 0.00 | 0.48 | 0.48 | 82 | 1007.3 |
| 20260506183518 | 20 | 135 | 3.2 | 12.9 | 0.00 | 0.48 | 0.48 | 84 | 1007.5 |
| 20260506182537 | 19 | 158 | 3.2 | 17.7 | 0.00 | 0.48 | 0.48 | 84 | 1007.6 |
| 20260506181517 | 19 | 180 | 3.2 | 11.3 | 0.00 | 0.48 | 0.48 | 85 | 1007.6 |
| 20260506180517 | 18 | 135 | 1.6 | 8.0 | 0.00 | 0.48 | 0.48 | 84 | 1007.7 |
| 20260506175538 | 18 | 180 | 4.8 | 9.7 | 0.00 | 0.48 | 0.48 | 84 | 1007.7 |
| 20260506174517 | 18 | 158 | 4.8 | 16.1 | 0.00 | 0.48 | 0.48 | 84 | 1007.7 |
| 20260506173517 | 18 | 180 | 4.8 | 12.9 | 0.00 | 0.48 | 0.48 | 84 | 1007.7 |
| 20260506172517 | 18 | 158 | 6.4 | 14.5 | 0.00 | 0.48 | 0.48 | 83 | 1007.8 |
| 20260506171516 | 19 | 135 | 4.8 | 14.5 | 0.00 | 0.48 | 0.48 | 83 | 1007.7 |
| 20260506170516 | 19 | 180 | 4.8 | 14.5 | 0.00 | 0.48 | 0.48 | 83 | 1007.7 |
| 20260506165517 | 19 | 180 | 4.8 | 12.9 | 0.00 | 0.48 | 0.48 | 85 | 1007.9 |
| 20260506164537 | 18 | 180 | 4.8 | 14.5 | 0.00 | 0.48 | 0.48 | 87 | 1007.8 |
| 20260506163516 | 18 | 225 | 3.2 | 12.9 | 0.00 | 0.48 | 0.48 | 88 | 1007.7 |
| 20260506162557 | 18 | 180 | 4.8 | 11.3 | 0.00 | 0.48 | 0.48 | 90 | 1007.7 |
| 20260506161516 | 17 | 180 | 4.8 | 14.5 | 0.00 | 0.48 | 0.48 | 92 | 1007.8 |